Hartford, Connecticut
Traffic Map
Current Weather Conditions
Hartford, Connecticut
Few Clouds
Few Clouds
31°
Feels Like: 22°
Wind Chill: 22° Ceiling: Unl
Heat Index: 31° Visibility: 10mi
Dew Point: 11° Wind: 10mph
Humidity: 43% Direction: 300° (WNW)
Pressure: 30.18in Gusts: 24mph
Raw Report DataKHFD 022253Z 30009G21KT 10SM FEW055 M01/M12 A3018 RMK AO2 PK WND 32032/2202 SLP219 T10061117
Traffic Incident Summary
Active as of:
Severity:
Category:
InformationThere was an issue retrieving the traffic information for this location. Please try a different location or try again shortly.
Advertisements
Track Severe Weather on mobile